Weather History for Knoxville, IA

Change the Weather History Date:

Tuesday, January 8, 2013

  Actual Average Record
Temperature  
Mean Temperature 38 °F -  
Max Temperature 48 °F 27 °F 68 °F (2003)
Min Temperature 28 °F 9 °F -15 °F (1970)
Degree Days  
Heating Degree Days 27    
Moisture  
Dew Point 27 °F    
Average Humidity 67    
Maximum Humidity 80    
Minimum Humidity 46    
Precipitation  
Precipitation 0.00 in - - ()
Sea Level Pressure  
Sea Level Pressure 29.97 in    
Wind  
Wind Speed 10 mph (South)    
Max Wind Speed 20 mph    
Max Gust Speed 26 mph    
Visibility 10 miles    
Events      
Averages and records for this station are not official NWS values.
T = Trace of Precipitation, MM = Missing Value Source: NWS Daily Summary

Daily Weather History Graph

Daily Weather History Graph

Search for Another Location

Airport:

Trip Planner

Search our weather history database for the weather conditions in past years. The results will help you decide how hot, cold, wet, or windy it might be!

Date:

Astronomy

Jan. 08, 2013 Rise Set
Actual Time 7:38 AM CST 5:00 PM CST
Civil Twilight 7:07 AM CST 5:31 PM CST
Nautical Twilight 6:32 AM CST 6:06 PM CST
Astronomical Twilight 5:59 AM CST 6:39 PM CST
Moon 4:11 AM CST (1/8) 2:03 PM CST (1/8)
Length of Visible Light 10h 24m
Length of Day
9h 22m
Waning Crescent, 13% of the Moon is Illuminated
Jan 8
Waning Crescent
Jan 11
New
Jan 18
First Quarter
Jan 26
Full
Feb 3
Last Quarter

Hourly Weather History & Observations

Time (CST) Temp. Windchill Dew Point Humidity Pressure Visibility Wind Dir Wind Speed Gust Speed Precip Events Conditions
12:15 AM 28.4 °F 22.2 °F 21.2 °F 74% 30.02 in 10.0 mi South 5.8 mph - N/A   Clear
12:35 AM 30.2 °F 23.4 °F 24.8 °F 80% 30.01 in 10.0 mi South 6.9 mph - N/A   Clear
12:55 AM 30.2 °F 23.4 °F 24.8 °F 80% 30.01 in 10.0 mi South 6.9 mph - N/A   Clear
1:15 AM 30.2 °F 23.4 °F 24.8 °F 80% 30.01 in 10.0 mi South 6.9 mph - N/A   Clear
1:35 AM 30.2 °F 21.9 °F 24.8 °F 80% 30.01 in 10.0 mi South 9.2 mph - N/A   Clear
1:55 AM 30.2 °F 23.4 °F 24.8 °F 80% 30.02 in 10.0 mi South 6.9 mph - N/A   Clear
2:15 AM 30.2 °F 22.6 °F 23.0 °F 75% 30.01 in 10.0 mi South 8.1 mph - N/A   Clear
2:35 AM 30.2 °F 22.6 °F 23.0 °F 75% 30.01 in 10.0 mi South 8.1 mph - N/A   Clear
2:55 AM 30.2 °F 22.6 °F 23.0 °F 75% 30.01 in 10.0 mi South 8.1 mph - N/A   Clear
3:15 AM 30.2 °F 22.6 °F 24.8 °F 80% 30.00 in 10.0 mi South 8.1 mph - N/A   Clear
3:35 AM 32.0 °F 24.2 °F 24.8 °F 75% 30.00 in 10.0 mi South 9.2 mph - N/A   Clear
3:55 AM 32.0 °F 24.8 °F 24.8 °F 75% 29.99 in 10.0 mi South 8.1 mph - N/A   Clear
4:15 AM 32.0 °F 24.8 °F 24.8 °F 75% 29.99 in 10.0 mi South 8.1 mph - N/A   Clear
4:35 AM 32.0 °F 24.2 °F 24.8 °F 75% 29.98 in 10.0 mi South 9.2 mph - N/A   Clear
4:55 AM 32.0 °F 24.2 °F 24.8 °F 75% 29.98 in 10.0 mi South 9.2 mph - N/A   Clear
5:15 AM 32.0 °F 23.6 °F 24.8 °F 75% 29.98 in 10.0 mi South 10.4 mph - N/A   Clear
5:35 AM 32.0 °F 24.8 °F 24.8 °F 75% 29.97 in 10.0 mi South 8.1 mph - N/A   Clear
6:15 AM 30.2 °F 21.9 °F 24.8 °F 80% 29.98 in 10.0 mi South 9.2 mph - N/A   Clear
6:35 AM 30.2 °F 21.9 °F 23.0 °F 75% 29.98 in 10.0 mi South 9.2 mph - N/A   Clear
6:55 AM 30.2 °F 22.6 °F 24.8 °F 80% 29.98 in 10.0 mi South 8.1 mph - N/A   Clear
7:35 AM 30.2 °F 22.6 °F 24.8 °F 80% 29.98 in 10.0 mi South 8.1 mph - N/A   Clear
7:55 AM 30.2 °F 21.3 °F 24.8 °F 80% 29.99 in 10.0 mi SSE 10.4 mph - N/A   Clear
8:15 AM 32.0 °F 24.2 °F 24.8 °F 75% 29.99 in 10.0 mi SSE 9.2 mph - N/A   Clear
8:35 AM 32.0 °F 24.8 °F 24.8 °F 75% 30.00 in 10.0 mi South 8.1 mph - N/A   Clear
8:55 AM 32.0 °F 24.2 °F 26.6 °F 80% 30.00 in 10.0 mi South 9.2 mph - N/A   Clear
9:15 AM 33.8 °F 25.8 °F 26.6 °F 75% 30.00 in 10.0 mi South 10.4 mph - N/A   Clear
9:35 AM 33.8 °F 24.8 °F 26.6 °F 75% 30.00 in 10.0 mi South 12.7 mph - N/A   Clear
9:55 AM 35.6 °F 27.5 °F 28.4 °F 75% 29.99 in 10.0 mi South 11.5 mph - N/A   Clear
10:15 AM 37.4 °F 28.9 °F 28.4 °F 70% 29.99 in 10.0 mi South 13.8 mph 19.6 mph N/A   Clear
10:35 AM 39.2 °F 30.8 °F 28.4 °F 65% 29.99 in 10.0 mi South 15.0 mph - N/A   Clear
10:55 AM 41.0 °F 32.2 °F 28.4 °F 61% 29.98 in 10.0 mi South 18.4 mph 24.2 mph N/A   Clear
11:15 AM 39.2 °F 30.5 °F 28.4 °F 65% 29.97 in 10.0 mi South 16.1 mph - N/A   Clear
11:35 AM 41.0 °F 33.1 °F 28.4 °F 61% 29.96 in 10.0 mi South 15.0 mph 20.7 mph N/A   Clear
11:55 AM 42.8 °F 35.8 °F 30.2 °F 61% 29.95 in 10.0 mi South 13.8 mph 20.7 mph N/A   Clear
12:15 PM 42.8 °F 34.8 °F 30.2 °F 61% 29.93 in 10.0 mi South 17.3 mph 21.9 mph N/A   Clear
12:35 PM 44.6 °F 38.1 °F 30.2 °F 57% 29.92 in 10.0 mi South 13.8 mph - N/A   Clear
12:55 PM 46.4 °F 39.2 °F 30.2 °F 53% 29.92 in 10.0 mi SSW 18.4 mph 23.0 mph N/A   Clear
1:15 PM 46.4 °F 40.7 °F 30.2 °F 53% 29.91 in 10.0 mi South 12.7 mph 23.0 mph N/A   Clear
1:55 PM 48.2 °F - 30.2 °F 50% 29.88 in 10.0 mi South 15.0 mph 21.9 mph N/A   Clear
2:15 PM 48.2 °F - 30.2 °F 50% 29.88 in 10.0 mi South 18.4 mph 24.2 mph N/A   Clear
2:35 PM 48.2 °F - 28.4 °F 46% 29.87 in 10.0 mi South 19.6 mph 25.3 mph N/A   Clear
3:15 PM 48.2 °F - 28.4 °F 46% 29.87 in 10.0 mi South 18.4 mph 26.5 mph N/A   Clear
3:35 PM 48.2 °F - 28.4 °F 46% 29.89 in 10.0 mi South 19.6 mph 24.2 mph N/A   Clear
3:55 PM 46.4 °F 40.7 °F 28.4 °F 50% 29.90 in 10.0 mi South 12.7 mph - N/A   Clear
4:15 PM 44.6 °F 38.1 °F 28.4 °F 53% 29.91 in 10.0 mi South 13.8 mph - N/A   Clear
4:35 PM 44.6 °F 38.1 °F 28.4 °F 53% 29.92 in 10.0 mi SSW 13.8 mph 18.4 mph N/A   Clear
4:55 PM 44.6 °F 37.8 °F 28.4 °F 53% 29.92 in 10.0 mi SSW 15.0 mph 18.4 mph N/A   Clear
5:15 PM 42.8 °F 36.2 °F 28.4 °F 57% 29.93 in 10.0 mi SSW 12.7 mph - N/A   Clear
5:35 PM 42.8 °F 37.0 °F 28.4 °F 57% 29.94 in 10.0 mi SSW 10.4 mph - N/A   Clear
5:55 PM 42.8 °F 37.0 °F 28.4 °F 57% 29.94 in 10.0 mi SSW 10.4 mph - N/A   Clear
6:15 PM 42.8 °F 36.6 °F 28.4 °F 57% 29.95 in 10.0 mi SSW 11.5 mph - N/A   Clear
6:35 PM 41.0 °F 34.7 °F 28.4 °F 61% 29.95 in 10.0 mi SSW 10.4 mph - N/A   Clear
6:55 PM 42.8 °F 36.2 °F 28.4 °F 57% 29.96 in 10.0 mi SSW 12.7 mph - N/A   Clear
7:15 PM 42.8 °F 36.2 °F 28.4 °F 57% 29.95 in 10.0 mi SSW 12.7 mph - N/A   Clear
7:35 PM 42.8 °F 36.2 °F 28.4 °F 57% 29.96 in 10.0 mi SSW 12.7 mph - N/A   Clear
7:55 PM 42.8 °F 37.5 °F 28.4 °F 57% 29.97 in 10.0 mi SW 9.2 mph - N/A   Clear
8:15 PM 41.0 °F 35.2 °F 28.4 °F 61% 29.99 in 10.0 mi SW 9.2 mph - N/A   Clear
8:35 PM 39.2 °F 33.0 °F 28.4 °F 65% 29.99 in 10.0 mi SW 9.2 mph - N/A   Clear
8:55 PM 39.2 °F 33.6 °F 28.4 °F 65% 30.00 in 10.0 mi SW 8.1 mph - N/A   Clear
9:35 PM 37.4 °F 29.8 °F 30.2 °F 75% 30.02 in 10.0 mi West 11.5 mph - N/A   Clear
9:55 PM 37.4 °F 29.8 °F 30.2 °F 75% 30.03 in 10.0 mi West 11.5 mph - N/A   Clear
10:15 PM 37.4 °F 28.9 °F 30.2 °F 75% 30.04 in 10.0 mi West 13.8 mph - N/A   Clear
10:35 PM 37.4 °F 30.3 °F 28.4 °F 70% 30.05 in 10.0 mi West 10.4 mph - N/A   Clear
11:55 PM 35.6 °F 28.0 °F 28.4 °F 75% 30.08 in 10.0 mi WSW 10.4 mph - N/A   Clear